sensor_id;sensor_type;location;lat;lon;timestamp;temperature;humidity
2935;DHT22;2462;51.456;7.248;2022-09-17T00:00:49;12.50;99.90
2935;DHT22;2462;51.456;7.248;2022-09-17T00:03:15;12.40;99.90
2935;DHT22;2462;51.456;7.248;2022-09-17T00:05:41;12.30;99.90
2935;DHT22;2462;51.456;7.248;2022-09-17T00:08:10;12.40;99.90
2935;DHT22;2462;51.456;7.248;2022-09-17T00:10:38;12.30;99.90
2935;DHT22;2462;51.456;7.248;2022-09-17T00:13:04;12.30;99.90
2935;DHT22;2462;51.456;7.248;2022-09-17T00:15:30;12.30;99.90
2935;DHT22;2462;51.456;7.248;2022-09-17T00:17:56;12.30;99.90
2935;DHT22;2462;51.456;7.248;2022-09-17T00:20:24;12.30;99.90
2935;DHT22;2462;51.456;7.248;2022-09-17T00:22:50;12.30;99.90
2935;DHT22;2462;51.456;7.248;2022-09-17T00:25:15;12.30;99.90
2935;DHT22;2462;51.456;7.248;2022-09-17T00:27:41;12.30;99.90
2935;DHT22;2462;51.456;7.248;2022-09-17T00:30:07;12.30;99.90
2935;DHT22;2462;51.456;7.248;2022-09-17T00:32:33;12.30;99.90
2935;DHT22;2462;51.456;7.248;2022-09-17T00:34:58;12.30;99.90
2935;DHT22;2462;51.456;7.248;2022-09-17T00:37:24;12.30;99.90
2935;DHT22;2462;51.456;7.248;2022-09-17T00:39:49;12.20;99.90
2935;DHT22;2462;51.456;7.248;2022-09-17T00:42:16;12.20;99.90
2935;DHT22;2462;51.456;7.248;2022-09-17T00:49:42;12.20;99.90
2935;DHT22;2462;51.456;7.248;2022-09-17T00:52:13;12.20;99.90
2935;DHT22;2462;51.456;7.248;2022-09-17T00:54:41;12.20;99.90
2935;DHT22;2462;51.456;7.248;2022-09-17T00:57:08;12.20;99.90
2935;DHT22;2462;51.456;7.248;2022-09-17T00:59:34;12.20;99.90
2935;DHT22;2462;51.456;7.248;2022-09-17T01:02:00;12.20;99.90
2935;DHT22;2462;51.456;7.248;2022-09-17T01:04:26;12.10;99.90
2935;DHT22;2462;51.456;7.248;2022-09-17T01:10:35;12.10;99.90
2935;DHT22;2462;51.456;7.248;2022-09-17T01:18:38;12.10;99.90
2935;DHT22;2462;51.456;7.248;2022-09-17T01:32:25;12.10;99.90
2935;DHT22;2462;51.456;7.248;2022-09-17T01:38:04;12.10;99.90
2935;DHT22;2462;51.456;7.248;2022-09-17T01:43:16;12.00;99.90
2935;DHT22;2462;51.456;7.248;2022-09-17T01:45:49;12.00;99.90
2935;DHT22;2462;51.456;7.248;2022-09-17T01:48:22;12.00;99.90
2935;DHT22;2462;51.456;7.248;2022-09-17T01:50:57;12.00;99.90
2935;DHT22;2462;51.456;7.248;2022-09-17T01:53:31;12.00;99.90
2935;DHT22;2462;51.456;7.248;2022-09-17T01:56:00;12.00;99.90
2935;DHT22;2462;51.456;7.248;2022-09-17T01:58:32;12.00;99.90
2935;DHT22;2462;51.456;7.248;2022-09-17T02:01:04;12.00;99.90
2935;DHT22;2462;51.456;7.248;2022-09-17T02:03:36;12.00;99.90
2935;DHT22;2462;51.456;7.248;2022-09-17T02:06:14;12.00;99.90
2935;DHT22;2462;51.456;7.248;2022-09-17T02:09:06;12.00;99.90
2935;DHT22;2462;51.456;7.248;2022-09-17T02:11:35;11.90;99.90
2935;DHT22;2462;51.456;7.248;2022-09-17T02:14:06;11.90;99.90
2935;DHT22;2462;51.456;7.248;2022-09-17T02:16:34;11.90;99.90
2935;DHT22;2462;51.456;7.248;2022-09-17T02:27:20;11.90;99.90
2935;DHT22;2462;51.456;7.248;2022-09-17T02:29:47;11.90;99.90
2935;DHT22;2462;51.456;7.248;2022-09-17T02:32:13;11.90;99.90
2935;DHT22;2462;51.456;7.248;2022-09-17T02:34:39;11.90;99.90
2935;DHT22;2462;51.456;7.248;2022-09-17T02:37:05;11.90;99.90
2935;DHT22;2462;51.456;7.248;2022-09-17T02:39:31;11.90;99.90
2935;DHT22;2462;51.456;7.248;2022-09-17T02:45:01;11.90;99.90
2935;DHT22;2462;51.456;7.248;2022-09-17T02:47:55;11.90;99.90
2935;DHT22;2462;51.456;7.248;2022-09-17T02:53:20;11.90;99.90
2935;DHT22;2462;51.456;7.248;2022-09-17T03:02:15;11.80;99.90
2935;DHT22;2462;51.456;7.248;2022-09-17T03:04:43;11.80;99.90
2935;DHT22;2462;51.456;7.248;2022-09-17T03:07:12;11.90;99.90
2935;DHT22;2462;51.456;7.248;2022-09-17T03:09:39;11.90;99.90
2935;DHT22;2462;51.456;7.248;2022-09-17T03:12:06;11.80;99.90
2935;DHT22;2462;51.456;7.248;2022-09-17T03:14:31;11.80;99.90
2935;DHT22;2462;51.456;7.248;2022-09-17T03:16:57;11.90;99.90
2935;DHT22;2462;51.456;7.248;2022-09-17T03:19:23;11.80;99.90
2935;DHT22;2462;51.456;7.248;2022-09-17T03:21:48;11.90;99.90
2935;DHT22;2462;51.456;7.248;2022-09-17T03:24:14;11.80;99.90
2935;DHT22;2462;51.456;7.248;2022-09-17T03:26:39;11.80;99.90
2935;DHT22;2462;51.456;7.248;2022-09-17T03:29:05;11.80;99.90
2935;DHT22;2462;51.456;7.248;2022-09-17T03:31:31;11.80;99.90
2935;DHT22;2462;51.456;7.248;2022-09-17T03:33:56;11.80;99.90
2935;DHT22;2462;51.456;7.248;2022-09-17T03:36:23;11.80;99.90
2935;DHT22;2462;51.456;7.248;2022-09-17T03:38:55;11.80;99.90
2935;DHT22;2462;51.456;7.248;2022-09-17T03:41:22;11.80;99.90
2935;DHT22;2462;51.456;7.248;2022-09-17T03:43:47;11.80;99.90
2935;DHT22;2462;51.456;7.248;2022-09-17T03:46:13;11.80;99.90
2935;DHT22;2462;51.456;7.248;2022-09-17T03:48:38;11.80;99.90
2935;DHT22;2462;51.456;7.248;2022-09-17T03:51:05;11.80;99.90
2935;DHT22;2462;51.456;7.248;2022-09-17T03:53:31;11.80;99.90
2935;DHT22;2462;51.456;7.248;2022-09-17T03:56:01;11.80;99.90
2935;DHT22;2462;51.456;7.248;2022-09-17T03:58:28;11.80;99.90
2935;DHT22;2462;51.456;7.248;2022-09-17T04:00:54;11.80;99.90
2935;DHT22;2462;51.456;7.248;2022-09-17T04:03:22;11.80;99.90
2935;DHT22;2462;51.456;7.248;2022-09-17T04:05:48;11.70;99.90
2935;DHT22;2462;51.456;7.248;2022-09-17T04:08:13;11.70;99.90
2935;DHT22;2462;51.456;7.248;2022-09-17T04:10:39;11.70;99.90
2935;DHT22;2462;51.456;7.248;2022-09-17T04:13:04;11.70;99.90
2935;DHT22;2462;51.456;7.248;2022-09-17T04:15:30;11.70;99.90
2935;DHT22;2462;51.456;7.248;2022-09-17T04:17:56;11.70;99.90
2935;DHT22;2462;51.456;7.248;2022-09-17T04:20:23;11.70;99.90
2935;DHT22;2462;51.456;7.248;2022-09-17T04:22:49;11.70;99.90
2935;DHT22;2462;51.456;7.248;2022-09-17T04:25:14;11.70;99.90
2935;DHT22;2462;51.456;7.248;2022-09-17T04:27:40;11.70;99.90
2935;DHT22;2462;51.456;7.248;2022-09-17T04:30:06;11.70;99.90
2935;DHT22;2462;51.456;7.248;2022-09-17T04:32:32;11.70;99.90
2935;DHT22;2462;51.456;7.248;2022-09-17T04:34:57;11.60;99.90
2935;DHT22;2462;51.456;7.248;2022-09-17T04:37:23;11.60;99.90
2935;DHT22;2462;51.456;7.248;2022-09-17T04:39:50;11.60;99.90
2935;DHT22;2462;51.456;7.248;2022-09-17T04:42:16;11.60;99.90
2935;DHT22;2462;51.456;7.248;2022-09-17T04:44:41;11.60;99.90
2935;DHT22;2462;51.456;7.248;2022-09-17T04:47:07;11.60;99.90
2935;DHT22;2462;51.456;7.248;2022-09-17T04:49:32;11.60;99.90
2935;DHT22;2462;51.456;7.248;2022-09-17T04:51:58;11.60;99.90
2935;DHT22;2462;51.456;7.248;2022-09-17T04:54:24;11.60;99.90
2935;DHT22;2462;51.456;7.248;2022-09-17T04:56:49;11.60;99.90
2935;DHT22;2462;51.456;7.248;2022-09-17T04:59:15;11.60;99.90
2935;DHT22;2462;51.456;7.248;2022-09-17T05:01:40;11.60;99.90
2935;DHT22;2462;51.456;7.248;2022-09-17T05:04:07;11.60;99.90
2935;DHT22;2462;51.456;7.248;2022-09-17T05:06:33;11.60;99.90
2935;DHT22;2462;51.456;7.248;2022-09-17T05:08:58;11.60;99.90
2935;DHT22;2462;51.456;7.248;2022-09-17T05:11:24;11.60;99.90
2935;DHT22;2462;51.456;7.248;2022-09-17T05:13:50;11.60;99.90
2935;DHT22;2462;51.456;7.248;2022-09-17T05:16:15;11.60;99.90
2935;DHT22;2462;51.456;7.248;2022-09-17T05:18:41;11.60;99.90
2935;DHT22;2462;51.456;7.248;2022-09-17T05:21:06;11.60;99.90
2935;DHT22;2462;51.456;7.248;2022-09-17T05:23:32;11.60;99.90
2935;DHT22;2462;51.456;7.248;2022-09-17T05:25:58;11.60;99.90
2935;DHT22;2462;51.456;7.248;2022-09-17T05:28:27;11.60;99.90
2935;DHT22;2462;51.456;7.248;2022-09-17T05:30:52;11.60;99.90
2935;DHT22;2462;51.456;7.248;2022-09-17T05:33:18;11.60;99.90
2935;DHT22;2462;51.456;7.248;2022-09-17T05:35:44;11.60;99.90
2935;DHT22;2462;51.456;7.248;2022-09-17T05:38:10;11.60;99.90
2935;DHT22;2462;51.456;7.248;2022-09-17T05:40:36;11.60;99.90
2935;DHT22;2462;51.456;7.248;2022-09-17T05:43:06;11.60;99.90
2935;DHT22;2462;51.456;7.248;2022-09-17T05:45:33;11.60;99.90
2935;DHT22;2462;51.456;7.248;2022-09-17T05:48:00;11.60;99.90
2935;DHT22;2462;51.456;7.248;2022-09-17T05:50:26;11.70;99.90
2935;DHT22;2462;51.456;7.248;2022-09-17T05:52:53;11.70;99.90
2935;DHT22;2462;51.456;7.248;2022-09-17T05:55:19;11.70;99.90
2935;DHT22;2462;51.456;7.248;2022-09-17T05:57:49;11.70;99.90
2935;DHT22;2462;51.456;7.248;2022-09-17T06:00:15;11.70;99.90
2935;DHT22;2462;51.456;7.248;2022-09-17T06:02:41;11.70;99.90
2935;DHT22;2462;51.456;7.248;2022-09-17T06:05:07;11.70;99.90
2935;DHT22;2462;51.456;7.248;2022-09-17T06:07:36;11.70;99.90
2935;DHT22;2462;51.456;7.248;2022-09-17T06:10:04;11.70;99.90
2935;DHT22;2462;51.456;7.248;2022-09-17T06:12:30;11.70;99.90
2935;DHT22;2462;51.456;7.248;2022-09-17T06:14:55;11.70;99.90
2935;DHT22;2462;51.456;7.248;2022-09-17T06:17:21;11.70;99.90
2935;DHT22;2462;51.456;7.248;2022-09-17T06:19:46;11.70;99.90
2935;DHT22;2462;51.456;7.248;2022-09-17T06:22:12;11.70;99.90
2935;DHT22;2462;51.456;7.248;2022-09-17T06:24:37;11.80;99.90
2935;DHT22;2462;51.456;7.248;2022-09-17T06:27:03;11.70;99.90
2935;DHT22;2462;51.456;7.248;2022-09-17T06:29:29;11.70;99.90
2935;DHT22;2462;51.456;7.248;2022-09-17T06:31:54;11.70;99.90
2935;DHT22;2462;51.456;7.248;2022-09-17T06:34:20;11.70;99.90
2935;DHT22;2462;51.456;7.248;2022-09-17T06:36:47;11.70;99.90
2935;DHT22;2462;51.456;7.248;2022-09-17T06:39:13;11.70;99.90
2935;DHT22;2462;51.456;7.248;2022-09-17T06:41:40;11.70;99.90
2935;DHT22;2462;51.456;7.248;2022-09-17T06:44:07;11.70;99.90
2935;DHT22;2462;51.456;7.248;2022-09-17T06:46:33;11.70;99.90
2935;DHT22;2462;51.456;7.248;2022-09-17T06:48:58;11.70;99.90
2935;DHT22;2462;51.456;7.248;2022-09-17T06:51:24;11.70;99.90
2935;DHT22;2462;51.456;7.248;2022-09-17T06:53:49;11.70;99.90
2935;DHT22;2462;51.456;7.248;2022-09-17T06:56:15;11.70;99.90
2935;DHT22;2462;51.456;7.248;2022-09-17T06:58:40;11.70;99.90
2935;DHT22;2462;51.456;7.248;2022-09-17T07:01:09;11.70;99.90
2935;DHT22;2462;51.456;7.248;2022-09-17T07:03:35;11.70;99.90
2935;DHT22;2462;51.456;7.248;2022-09-17T07:06:01;11.70;99.90
2935;DHT22;2462;51.456;7.248;2022-09-17T07:08:27;11.70;99.90
2935;DHT22;2462;51.456;7.248;2022-09-17T07:10:56;11.80;99.90
2935;DHT22;2462;51.456;7.248;2022-09-17T07:13:22;11.70;99.90
2935;DHT22;2462;51.456;7.248;2022-09-17T07:15:58;11.80;99.90
2935;DHT22;2462;51.456;7.248;2022-09-17T07:18:25;11.80;99.90
2935;DHT22;2462;51.456;7.248;2022-09-17T07:21:02;11.80;99.90
2935;DHT22;2462;51.456;7.248;2022-09-17T07:23:33;11.80;99.90
2935;DHT22;2462;51.456;7.248;2022-09-17T07:26:01;11.80;99.90
2935;DHT22;2462;51.456;7.248;2022-09-17T07:28:27;11.80;99.90
2935;DHT22;2462;51.456;7.248;2022-09-17T07:30:53;11.80;99.90
2935;DHT22;2462;51.456;7.248;2022-09-17T07:33:21;11.80;99.90
2935;DHT22;2462;51.456;7.248;2022-09-17T07:35:59;11.80;99.90
2935;DHT22;2462;51.456;7.248;2022-09-17T07:38:25;11.90;99.90
2935;DHT22;2462;51.456;7.248;2022-09-17T07:40:59;11.90;99.90
2935;DHT22;2462;51.456;7.248;2022-09-17T07:43:30;11.90;99.90
2935;DHT22;2462;51.456;7.248;2022-09-17T07:45:57;11.90;99.90
2935;DHT22;2462;51.456;7.248;2022-09-17T07:48:23;11.90;99.90
2935;DHT22;2462;51.456;7.248;2022-09-17T07:50:49;11.90;99.90
2935;DHT22;2462;51.456;7.248;2022-09-17T07:53:15;11.90;99.90
2935;DHT22;2462;51.456;7.248;2022-09-17T07:55:40;12.00;99.90
2935;DHT22;2462;51.456;7.248;2022-09-17T07:58:06;12.00;99.90
2935;DHT22;2462;51.456;7.248;2022-09-17T08:00:32;12.00;99.90
2935;DHT22;2462;51.456;7.248;2022-09-17T08:02:58;12.10;99.90
2935;DHT22;2462;51.456;7.248;2022-09-17T08:05:24;12.10;99.90
2935;DHT22;2462;51.456;7.248;2022-09-17T08:07:54;12.10;99.90
2935;DHT22;2462;51.456;7.248;2022-09-17T08:10:20;12.10;99.90
2935;DHT22;2462;51.456;7.248;2022-09-17T08:12:53;12.10;99.90
2935;DHT22;2462;51.456;7.248;2022-09-17T08:15:19;12.10;99.90
2935;DHT22;2462;51.456;7.248;2022-09-17T08:17:45;12.10;99.90
2935;DHT22;2462;51.456;7.248;2022-09-17T08:20:11;12.10;99.90
2935;DHT22;2462;51.456;7.248;2022-09-17T08:22:38;12.10;99.90
2935;DHT22;2462;51.456;7.248;2022-09-17T08:25:04;12.10;99.90
2935;DHT22;2462;51.456;7.248;2022-09-17T08:27:30;12.10;99.90
2935;DHT22;2462;51.456;7.248;2022-09-17T08:29:56;12.20;99.90
2935;DHT22;2462;51.456;7.248;2022-09-17T08:32:22;12.20;99.90
2935;DHT22;2462;51.456;7.248;2022-09-17T08:34:48;12.20;99.90
2935;DHT22;2462;51.456;7.248;2022-09-17T08:37:14;12.30;99.90
2935;DHT22;2462;51.456;7.248;2022-09-17T08:39:39;12.30;99.90
2935;DHT22;2462;51.456;7.248;2022-09-17T08:42:16;12.30;99.90
2935;DHT22;2462;51.456;7.248;2022-09-17T08:44:46;12.30;99.90
2935;DHT22;2462;51.456;7.248;2022-09-17T08:49:54;12.30;99.90
2935;DHT22;2462;51.456;7.248;2022-09-17T08:58:07;12.40;99.90
2935;DHT22;2462;51.456;7.248;2022-09-17T09:06:23;12.50;99.90
2935;DHT22;2462;51.456;7.248;2022-09-17T09:08:59;12.50;99.90
2935;DHT22;2462;51.456;7.248;2022-09-17T09:11:29;12.50;99.90
2935;DHT22;2462;51.456;7.248;2022-09-17T09:14:26;12.50;99.90
2935;DHT22;2462;51.456;7.248;2022-09-17T09:16:55;12.60;99.90
2935;DHT22;2462;51.456;7.248;2022-09-17T09:19:29;12.60;99.90
2935;DHT22;2462;51.456;7.248;2022-09-17T09:24:24;12.70;99.90
2935;DHT22;2462;51.456;7.248;2022-09-17T09:35:17;12.70;99.90
2935;DHT22;2462;51.456;7.248;2022-09-17T09:37:52;12.80;99.90
2935;DHT22;2462;51.456;7.248;2022-09-17T09:40:32;12.80;99.90
2935;DHT22;2462;51.456;7.248;2022-09-17T09:43:02;12.90;99.90
2935;DHT22;2462;51.456;7.248;2022-09-17T09:45:57;12.90;99.90
2935;DHT22;2462;51.456;7.248;2022-09-17T09:48:51;12.80;99.90
2935;DHT22;2462;51.456;7.248;2022-09-17T09:51:42;12.90;99.90
2935;DHT22;2462;51.456;7.248;2022-09-17T09:59:11;12.90;99.90
2935;DHT22;2462;51.456;7.248;2022-09-17T10:01:40;13.00;99.90
2935;DHT22;2462;51.456;7.248;2022-09-17T10:04:26;13.00;99.90
2935;DHT22;2462;51.456;7.248;2022-09-17T10:07:00;13.00;99.90
2935;DHT22;2462;51.456;7.248;2022-09-17T10:09:30;13.00;99.90
2935;DHT22;2462;51.456;7.248;2022-09-17T10:12:03;13.00;99.90
2935;DHT22;2462;51.456;7.248;2022-09-17T10:14:31;13.00;99.90
2935;DHT22;2462;51.456;7.248;2022-09-17T10:19:40;13.00;99.90
2935;DHT22;2462;51.456;7.248;2022-09-17T10:22:40;13.00;99.90
2935;DHT22;2462;51.456;7.248;2022-09-17T10:27:49;13.00;99.90
2935;DHT22;2462;51.456;7.248;2022-09-17T10:30:16;13.00;99.90
2935;DHT22;2462;51.456;7.248;2022-09-17T10:32:42;13.10;99.90
2935;DHT22;2462;51.456;7.248;2022-09-17T10:37:44;13.20;99.90
2935;DHT22;2462;51.456;7.248;2022-09-17T10:45:33;13.30;99.90
2935;DHT22;2462;51.456;7.248;2022-09-17T10:47:59;13.30;99.90
2935;DHT22;2462;51.456;7.248;2022-09-17T10:50:29;13.30;99.90
2935;DHT22;2462;51.456;7.248;2022-09-17T10:52:58;13.30;99.90
2935;DHT22;2462;51.456;7.248;2022-09-17T10:55:37;13.30;99.90
2935;DHT22;2462;51.456;7.248;2022-09-17T11:06:31;13.20;99.90
2935;DHT22;2462;51.456;7.248;2022-09-17T11:09:26;13.30;99.90
2935;DHT22;2462;51.456;7.248;2022-09-17T11:14:38;13.30;99.90
2935;DHT22;2462;51.456;7.248;2022-09-17T11:20:04;13.30;99.90
2935;DHT22;2462;51.456;7.248;2022-09-17T11:25:59;13.20;99.90
2935;DHT22;2462;51.456;7.248;2022-09-17T11:37:31;13.00;99.90
2935;DHT22;2462;51.456;7.248;2022-09-17T11:45:27;12.90;99.90
2935;DHT22;2462;51.456;7.248;2022-09-17T11:48:11;12.90;99.90
2935;DHT22;2462;51.456;7.248;2022-09-17T11:50:51;12.90;99.90
2935;DHT22;2462;51.456;7.248;2022-09-17T12:01:09;13.10;99.90
2935;DHT22;2462;51.456;7.248;2022-09-17T12:03:42;13.10;99.90
2935;DHT22;2462;51.456;7.248;2022-09-17T12:06:15;13.10;99.90
2935;DHT22;2462;51.456;7.248;2022-09-17T12:11:41;13.10;99.90
2935;DHT22;2462;51.456;7.248;2022-09-17T12:14:26;13.20;99.90
2935;DHT22;2462;51.456;7.248;2022-09-17T12:16:56;13.20;99.90
2935;DHT22;2462;51.456;7.248;2022-09-17T12:19:29;13.30;99.90
2935;DHT22;2462;51.456;7.248;2022-09-17T12:22:13;13.40;99.90
2935;DHT22;2462;51.456;7.248;2022-09-17T12:24:40;13.40;99.90
2935;DHT22;2462;51.456;7.248;2022-09-17T12:27:38;13.50;99.90
2935;DHT22;2462;51.456;7.248;2022-09-17T12:30:09;13.50;99.90
2935;DHT22;2462;51.456;7.248;2022-09-17T12:40:51;13.50;99.90
2935;DHT22;2462;51.456;7.248;2022-09-17T12:49:42;13.60;99.90
2935;DHT22;2462;51.456;7.248;2022-09-17T12:52:32;13.60;99.90
2935;DHT22;2462;51.456;7.248;2022-09-17T12:55:43;13.60;99.90
2935;DHT22;2462;51.456;7.248;2022-09-17T13:01:06;13.60;99.90
2935;DHT22;2462;51.456;7.248;2022-09-17T13:03:42;13.70;99.90
2935;DHT22;2462;51.456;7.248;2022-09-17T13:20:04;13.80;99.90
2935;DHT22;2462;51.456;7.248;2022-09-17T13:22:44;13.80;99.90
2935;DHT22;2462;51.456;7.248;2022-09-17T13:25:12;13.80;99.90
2935;DHT22;2462;51.456;7.248;2022-09-17T13:27:39;13.70;99.90
2935;DHT22;2462;51.456;7.248;2022-09-17T13:30:09;13.70;99.90
2935;DHT22;2462;51.456;7.248;2022-09-17T13:40:31;13.60;99.90
2935;DHT22;2462;51.456;7.248;2022-09-17T13:45:27;13.50;99.90
2935;DHT22;2462;51.456;7.248;2022-09-17T13:47:56;13.40;99.90
2935;DHT22;2462;51.456;7.248;2022-09-17T13:50:33;13.40;99.90
2935;DHT22;2462;51.456;7.248;2022-09-17T14:19:23;13.20;99.90
2935;DHT22;2462;51.456;7.248;2022-09-17T14:35:22;13.60;99.90
2935;DHT22;2462;51.456;7.248;2022-09-17T14:37:52;13.60;99.90
2935;DHT22;2462;51.456;7.248;2022-09-17T14:40:20;13.50;99.90
2935;DHT22;2462;51.456;7.248;2022-09-17T14:42:50;13.50;99.90
2935;DHT22;2462;51.456;7.248;2022-09-17T14:45:21;13.60;99.90
2935;DHT22;2462;51.456;7.248;2022-09-17T14:47:47;13.60;99.90
2935;DHT22;2462;51.456;7.248;2022-09-17T14:50:31;13.60;99.90
2935;DHT22;2462;51.456;7.248;2022-09-17T14:52:57;13.50;99.90
2935;DHT22;2462;51.456;7.248;2022-09-17T14:55:24;13.60;99.90
2935;DHT22;2462;51.456;7.248;2022-09-17T14:57:55;13.60;99.90
2935;DHT22;2462;51.456;7.248;2022-09-17T15:00:27;13.70;99.90
2935;DHT22;2462;51.456;7.248;2022-09-17T15:02:57;13.70;99.90
2935;DHT22;2462;51.456;7.248;2022-09-17T15:05:31;13.80;99.90
2935;DHT22;2462;51.456;7.248;2022-09-17T15:13:16;13.90;99.90
2935;DHT22;2462;51.456;7.248;2022-09-17T15:18:48;14.00;99.90
2935;DHT22;2462;51.456;7.248;2022-09-17T15:23:50;14.00;99.90
2935;DHT22;2462;51.456;7.248;2022-09-17T15:26:21;14.00;99.90
2935;DHT22;2462;51.456;7.248;2022-09-17T15:28:50;14.00;99.90
2935;DHT22;2462;51.456;7.248;2022-09-17T15:31:18;14.00;99.90
2935;DHT22;2462;51.456;7.248;2022-09-17T15:33:45;13.90;99.90
2935;DHT22;2462;51.456;7.248;2022-09-17T15:38:46;13.80;99.90
2935;DHT22;2462;51.456;7.248;2022-09-17T15:43:45;13.80;99.90
2935;DHT22;2462;51.456;7.248;2022-09-17T15:46:25;13.70;99.90
2935;DHT22;2462;51.456;7.248;2022-09-17T15:48:52;13.70;99.90
2935;DHT22;2462;51.456;7.248;2022-09-17T15:51:45;13.60;99.90
2935;DHT22;2462;51.456;7.248;2022-09-17T15:54:30;13.60;99.90
2935;DHT22;2462;51.456;7.248;2022-09-17T15:56:59;13.50;99.90
2935;DHT22;2462;51.456;7.248;2022-09-17T15:59:32;13.50;99.90
2935;DHT22;2462;51.456;7.248;2022-09-17T16:02:00;13.50;99.90
2935;DHT22;2462;51.456;7.248;2022-09-17T16:04:32;13.50;99.90
2935;DHT22;2462;51.456;7.248;2022-09-17T16:07:00;13.50;99.90
2935;DHT22;2462;51.456;7.248;2022-09-17T16:12:04;13.40;99.90
2935;DHT22;2462;51.456;7.248;2022-09-17T16:14:30;13.40;99.90
2935;DHT22;2462;51.456;7.248;2022-09-17T16:16:56;13.40;99.90
2935;DHT22;2462;51.456;7.248;2022-09-17T16:19:24;13.40;99.90
2935;DHT22;2462;51.456;7.248;2022-09-17T16:21:49;13.30;99.90
2935;DHT22;2462;51.456;7.248;2022-09-17T16:24:15;13.30;99.90
2935;DHT22;2462;51.456;7.248;2022-09-17T16:26:41;13.20;99.90
2935;DHT22;2462;51.456;7.248;2022-09-17T16:29:11;13.20;99.90
2935;DHT22;2462;51.456;7.248;2022-09-17T16:31:37;13.20;99.90
2935;DHT22;2462;51.456;7.248;2022-09-17T16:34:03;13.10;99.90
2935;DHT22;2462;51.456;7.248;2022-09-17T16:36:29;13.10;99.90
2935;DHT22;2462;51.456;7.248;2022-09-17T16:38:57;13.10;99.90
2935;DHT22;2462;51.456;7.248;2022-09-17T16:41:22;13.10;99.90
2935;DHT22;2462;51.456;7.248;2022-09-17T16:43:48;13.10;99.90
2935;DHT22;2462;51.456;7.248;2022-09-17T16:46:14;13.00;99.90
2935;DHT22;2462;51.456;7.248;2022-09-17T16:48:39;13.00;99.90
2935;DHT22;2462;51.456;7.248;2022-09-17T16:51:11;13.00;99.90
2935;DHT22;2462;51.456;7.248;2022-09-17T16:53:37;12.90;99.90
2935;DHT22;2462;51.456;7.248;2022-09-17T16:56:07;13.00;99.90
2935;DHT22;2462;51.456;7.248;2022-09-17T16:58:33;12.90;99.90
2935;DHT22;2462;51.456;7.248;2022-09-17T17:01:05;12.90;99.90
2935;DHT22;2462;51.456;7.248;2022-09-17T17:03:31;12.90;99.90
2935;DHT22;2462;51.456;7.248;2022-09-17T17:05:57;12.90;99.90
2935;DHT22;2462;51.456;7.248;2022-09-17T17:08:22;12.80;99.90
2935;DHT22;2462;51.456;7.248;2022-09-17T17:10:48;12.80;99.90
2935;DHT22;2462;51.456;7.248;2022-09-17T17:13:14;12.80;99.90
2935;DHT22;2462;51.456;7.248;2022-09-17T17:15:40;12.80;99.90
2935;DHT22;2462;51.456;7.248;2022-09-17T17:18:06;12.80;99.90
2935;DHT22;2462;51.456;7.248;2022-09-17T17:20:34;12.80;99.90
2935;DHT22;2462;51.456;7.248;2022-09-17T17:23:00;12.70;99.90
2935;DHT22;2462;51.456;7.248;2022-09-17T17:25:25;12.70;99.90
2935;DHT22;2462;51.456;7.248;2022-09-17T17:27:51;12.70;99.90
2935;DHT22;2462;51.456;7.248;2022-09-17T17:30:17;12.70;99.90
2935;DHT22;2462;51.456;7.248;2022-09-17T17:32:43;12.60;99.90
2935;DHT22;2462;51.456;7.248;2022-09-17T17:35:10;12.60;99.90
2935;DHT22;2462;51.456;7.248;2022-09-17T17:37:35;12.60;99.90
2935;DHT22;2462;51.456;7.248;2022-09-17T17:40:02;12.60;99.90
2935;DHT22;2462;51.456;7.248;2022-09-17T17:42:32;12.60;99.90
2935;DHT22;2462;51.456;7.248;2022-09-17T17:45:03;12.60;99.90
2935;DHT22;2462;51.456;7.248;2022-09-17T17:47:28;12.60;99.90
2935;DHT22;2462;51.456;7.248;2022-09-17T17:49:54;12.50;99.90
2935;DHT22;2462;51.456;7.248;2022-09-17T17:52:20;12.50;99.90
2935;DHT22;2462;51.456;7.248;2022-09-17T17:54:45;12.50;99.90
2935;DHT22;2462;51.456;7.248;2022-09-17T17:57:11;12.50;99.90
2935;DHT22;2462;51.456;7.248;2022-09-17T17:59:36;12.50;99.90
2935;DHT22;2462;51.456;7.248;2022-09-17T18:02:02;12.50;99.90
2935;DHT22;2462;51.456;7.248;2022-09-17T18:04:28;12.50;99.90
2935;DHT22;2462;51.456;7.248;2022-09-17T18:06:53;12.40;99.90
2935;DHT22;2462;51.456;7.248;2022-09-17T18:09:19;12.40;99.90
2935;DHT22;2462;51.456;7.248;2022-09-17T18:11:44;12.40;99.90
2935;DHT22;2462;51.456;7.248;2022-09-17T18:14:13;12.40;99.90
2935;DHT22;2462;51.456;7.248;2022-09-17T18:16:39;12.40;99.90
2935;DHT22;2462;51.456;7.248;2022-09-17T18:19:04;12.40;99.90
2935;DHT22;2462;51.456;7.248;2022-09-17T18:21:30;12.40;99.90
2935;DHT22;2462;51.456;7.248;2022-09-17T18:23:56;12.30;99.90
2935;DHT22;2462;51.456;7.248;2022-09-17T18:26:24;12.30;99.90
2935;DHT22;2462;51.456;7.248;2022-09-17T18:28:50;12.30;99.90
2935;DHT22;2462;51.456;7.248;2022-09-17T18:31:27;12.30;99.90
2935;DHT22;2462;51.456;7.248;2022-09-17T18:33:58;12.30;99.90
2935;DHT22;2462;51.456;7.248;2022-09-17T18:36:25;12.30;99.90
2935;DHT22;2462;51.456;7.248;2022-09-17T18:38:55;12.30;99.90
2935;DHT22;2462;51.456;7.248;2022-09-17T18:41:26;12.30;99.90
2935;DHT22;2462;51.456;7.248;2022-09-17T18:43:52;12.30;99.90
2935;DHT22;2462;51.456;7.248;2022-09-17T18:46:17;12.30;99.90
2935;DHT22;2462;51.456;7.248;2022-09-17T18:48:43;12.30;99.90
2935;DHT22;2462;51.456;7.248;2022-09-17T18:51:11;12.30;99.90
2935;DHT22;2462;51.456;7.248;2022-09-17T18:53:37;12.30;99.90
2935;DHT22;2462;51.456;7.248;2022-09-17T18:56:18;12.30;99.90
2935;DHT22;2462;51.456;7.248;2022-09-17T18:58:44;12.30;99.90
2935;DHT22;2462;51.456;7.248;2022-09-17T19:01:10;12.30;99.90
2935;DHT22;2462;51.456;7.248;2022-09-17T19:03:36;12.30;99.90
2935;DHT22;2462;51.456;7.248;2022-09-17T19:06:04;12.30;99.90
2935;DHT22;2462;51.456;7.248;2022-09-17T19:08:30;12.30;99.90
2935;DHT22;2462;51.456;7.248;2022-09-17T19:10:55;13.60;99.90
2935;DHT22;2462;51.456;7.248;2022-09-17T19:13:23;12.30;99.90
2935;DHT22;2462;51.456;7.248;2022-09-17T19:15:49;12.30;99.90
2935;DHT22;2462;51.456;7.248;2022-09-17T19:18:15;12.20;99.90
2935;DHT22;2462;51.456;7.248;2022-09-17T19:20:41;12.30;99.90
2935;DHT22;2462;51.456;7.248;2022-09-17T19:23:07;12.20;99.90
2935;DHT22;2462;51.456;7.248;2022-09-17T19:25:35;12.30;99.90
2935;DHT22;2462;51.456;7.248;2022-09-17T19:28:02;12.30;99.90
2935;DHT22;2462;51.456;7.248;2022-09-17T19:30:28;12.20;99.90
2935;DHT22;2462;51.456;7.248;2022-09-17T19:32:55;12.20;99.90
2935;DHT22;2462;51.456;7.248;2022-09-17T19:35:23;12.20;99.90
2935;DHT22;2462;51.456;7.248;2022-09-17T19:37:49;12.20;99.90
2935;DHT22;2462;51.456;7.248;2022-09-17T19:40:16;12.20;99.90
2935;DHT22;2462;51.456;7.248;2022-09-17T19:42:42;12.20;99.90
2935;DHT22;2462;51.456;7.248;2022-09-17T19:45:08;12.20;99.90
2935;DHT22;2462;51.456;7.248;2022-09-17T19:47:33;12.20;99.90
2935;DHT22;2462;51.456;7.248;2022-09-17T19:49:59;12.20;99.90
2935;DHT22;2462;51.456;7.248;2022-09-17T19:52:24;12.20;99.90
2935;DHT22;2462;51.456;7.248;2022-09-17T19:54:50;12.20;99.90
2935;DHT22;2462;51.456;7.248;2022-09-17T19:57:15;12.20;99.90
2935;DHT22;2462;51.456;7.248;2022-09-17T19:59:41;12.30;99.90
2935;DHT22;2462;51.456;7.248;2022-09-17T20:02:09;12.30;99.90
2935;DHT22;2462;51.456;7.248;2022-09-17T20:04:35;12.30;99.90
2935;DHT22;2462;51.456;7.248;2022-09-17T20:07:01;12.30;99.90
2935;DHT22;2462;51.456;7.248;2022-09-17T20:09:29;12.30;99.90